Ora Direzione Vento Velocita' Vento Media Vento Raffica Max. Temperatura Wind Chill Pioggia Pressione
15:10:21.0323 °(NW)6.1 Kts6.1 Kts20.0 Kts13.9 °C11.5 °C0.0 mm1008.2 Hpa
14:49:33.0326 °(NW)7.0 Kts7.0 Kts20.0 Kts13.9 °C10.7 °C0.0 mm1008.2 Hpa
14:29:52.0319 °(NW)8.7 Kts8.7 Kts20.0 Kts14.0 °C9.5 °C0.0 mm1008.5 Hpa
14:09:21.0319 °(NW)7.0 Kts8.7 Kts20.0 Kts14.1 °C9.5 °C0.0 mm1008.5 Hpa
13:49:33.0321 °(NW)8.7 Kts8.7 Kts20.0 Kts14.1 °C9.6 °C0.0 mm1008.8 Hpa
13:30:15.0319 °(NW)7.8 Kts9.6 Kts20.0 Kts14.1 °C9.2 °C0.0 mm1009.0 Hpa
13:09:46.0316 °(NW)11.3 Kts11.3 Kts20.0 Kts14.1 °C8.4 °C0.0 mm1009.2 Hpa
12:49:23.0310 °(NW)11.3 Kts12.2 Kts20.0 Kts14.2 °C8.2 °C0.0 mm1009.2 Hpa
12:30:02.0316 °(NW)11.3 Kts12.2 Kts20.0 Kts14.2 °C8.2 °C0.0 mm1009.6 Hpa
12:10:14.0311 °(NW)13.0 Kts14.8 Kts20.0 Kts14.4 °C7.4 °C0.0 mm1009.6 Hpa
11:49:55.0316 °(NW)16.5 Kts16.5 Kts20.0 Kts14.5 °C6.9 °C0.0 mm1009.7 Hpa
11:29:33.0327 °(NNW)17.4 Kts15.6 Kts18.2 Kts14.4 °C7.1 °C0.0 mm1009.7 Hpa
11:10:19.0314 °(NW)12.2 Kts11.3 Kts15.6 Kts13.9 °C8.3 °C0.0 mm1009.7 Hpa
10:50:10.0314 °(NW)12.2 Kts11.3 Kts15.6 Kts14.3 °C8.8 °C0.0 mm1009.7 Hpa
10:29:46.0315 °(NW)12.2 Kts13.0 Kts15.6 Kts14.8 °C8.6 °C0.0 mm1009.5 Hpa
10:09:24.0318 °(NW)10.4 Kts11.3 Kts15.6 Kts15.4 °C10.2 °C0.0 mm1009.2 Hpa
09:50:13.0305 °(NW)7.8 Kts7.0 Kts13.0 Kts15.8 °C12.9 °C0.0 mm1009.3 Hpa
09:29:57.0308 °(NW)3.5 Kts4.3 Kts7.8 Kts15.5 °C14.5 °C0.0 mm1009.2 Hpa
09:09:38.0257 °(WSW)1.7 Kts0.9 Kts7.8 Kts13.0 °C13.0 °C0.0 mm1009.1 Hpa
08:49:22.0206 °(SSW)3.5 Kts2.6 Kts7.8 Kts11.6 °C11.6 °C0.0 mm1009.0 Hpa